Time;durP1;ratioP1;P1;durP2;ratioP2;P2;SDS_P1;SDS_P2;PMS_P1;PMS_P2;Temp;Humidity;BMP_temperature;BMP_pressure;BME280_temperature;BME280_humidity;BME280_pressure;Samples;Min_cycle;Max_cycle;Signal;HPM_P1;HPM_P2
2021/10/28 00:14:42;;;;;;;8.93;4.72;;;;;;;3.43;97.86;99085.25;5009042;28;20020;-66
2021/10/28 00:17:10;;;;;;;7.25;4.38;;;;;;;3.50;97.53;99092.28;5011124;28;20076;-66
2021/10/28 00:19:37;;;;;;;12.18;4.93;;;;;;;3.49;97.71;99090.56;5008204;28;20014;-66
2021/10/28 00:22:05;;;;;;;8.55;4.85;;;;;;;3.46;98.14;99090.50;5006619;28;20389;-66
2021/10/28 00:24:31;;;;;;;10.55;4.75;;;;;;;3.55;97.32;99093.22;4999698;28;20028;-66
2021/10/28 00:26:56;;;;;;;9.70;5.07;;;;;;;3.32;97.01;99089.38;5010840;28;20104;-66
2021/10/28 00:29:23;;;;;;;7.55;4.45;;;;;;;3.29;97.75;99083.28;5006375;28;20045;-66
2021/10/28 00:31:49;;;;;;;15.02;4.82;;;;;;;3.32;97.66;99097.19;5015046;28;20109;-66
2021/10/28 00:34:16;;;;;;;8.02;4.38;;;;;;;3.44;97.20;99086.09;5012577;28;20317;-66
2021/10/28 00:36:47;;;;;;;8.05;4.72;;;;;;;3.44;97.15;99081.78;5006294;28;20052;-66
2021/10/28 00:39:13;;;;;;;7.15;4.32;;;;;;;3.40;97.22;99087.81;5005802;28;20029;-66
2021/10/28 00:41:39;;;;;;;10.07;4.47;;;;;;;3.32;97.46;99078.97;5007646;28;20014;-66
2021/10/28 00:44:07;;;;;;;11.85;4.75;;;;;;;3.35;97.80;99088.59;5006237;28;20227;-66
2021/10/28 00:46:35;;;;;;;8.88;4.85;;;;;;;3.44;97.92;99087.00;5009350;28;20333;-66
2021/10/28 00:49:02;;;;;;;6.70;3.97;;;;;;;3.39;96.82;99088.63;5006626;28;20030;-66
2021/10/28 00:51:29;;;;;;;16.02;4.75;;;;;;;3.39;97.75;99092.97;5006019;28;20045;-66
2021/10/28 00:53:56;;;;;;;9.52;5.32;;;;;;;3.37;97.64;99082.53;5006162;28;20077;-66
2021/10/28 00:56:24;;;;;;;10.48;5.63;;;;;;;3.45;97.69;99088.72;5005590;28;20068;-66
2021/10/28 00:58:49;;;;;;;11.45;5.88;;;;;;;3.54;98.21;99094.09;5013248;28;20305;-66
2021/10/28 01:01:15;;;;;;;16.17;6.53;;;;;;;3.62;98.06;99081.19;5017351;28;20021;-66
2021/10/28 01:03:44;;;;;;;12.30;6.03;;;;;;;3.58;98.30;99080.25;5056511;23;20049;-90
2021/10/28 01:06:09;;;;;;;20.42;5.70;;;;;;;3.51;97.55;99078.41;5063572;28;20024;-90
2021/10/28 01:08:38;;;;;;;14.52;6.22;;;;;;;3.49;98.33;99074.94;5062841;28;20017;-90
2021/10/28 01:11:07;;;;;;;15.23;5.60;;;;;;;3.56;98.11;99071.56;5063967;28;20088;-90
2021/10/28 01:13:35;;;;;;;10.70;5.65;;;;;;;3.62;97.80;99076.88;5064220;28;20361;-89
2021/10/28 01:16:07;;;;;;;8.55;5.22;;;;;;;3.59;97.64;99071.63;5065150;28;20071;-89
2021/10/28 01:18:38;;;;;;;15.20;5.93;;;;;;;3.47;98.04;99081.84;5064341;28;20328;-89
2021/10/28 01:21:08;;;;;;;15.02;5.78;;;;;;;3.48;97.63;99073.16;5063712;28;20013;-90
2021/10/28 01:23:37;;;;;;;18.40;5.80;;;;;;;3.52;97.86;99075.00;5062534;28;20040;-90
2021/10/28 01:26:05;;;;;;;20.23;5.70;;;;;;;3.48;97.40;99070.56;5064879;28;20021;-89
2021/10/28 01:28:33;;;;;;;13.57;5.50;;;;;;;3.55;97.57;99063.75;5063567;28;20231;-89
2021/10/28 01:31:07;;;;;;;9.90;4.97;;;;;;;3.49;97.13;99069.72;5063368;28;20047;-89
2021/10/28 01:33:33;;;;;;;16.30;5.70;;;;;;;3.46;97.57;99064.47;5063583;28;20019;-90
2021/10/28 01:35:59;;;;;;;9.48;4.80;;;;;;;3.38;97.64;99062.59;5063396;28;20070;-89
2021/10/28 01:38:27;;;;;;;9.05;4.65;;;;;;;3.42;97.87;99067.88;5045710;28;20219;-89
2021/10/28 01:41:00;;;;;;;10.20;3.90;;;;;;;3.42;96.87;99062.66;5067588;28;20039;-89
2021/10/28 01:43:28;;;;;;;7.30;4.22;;;;;;;3.34;96.66;99064.28;5063864;28;20096;-89
2021/10/28 01:45:55;;;;;;;8.13;4.03;;;;;;;3.35;96.53;99065.16;5063015;28;20028;-90
2021/10/28 01:48:23;;;;;;;10.50;4.47;;;;;;;3.27;96.80;99059.84;5063178;28;20025;-89
2021/10/28 01:50:50;;;;;;;10.38;5.07;;;;;;;3.29;96.84;99054.66;5082575;28;20031;-89
2021/10/28 01:53:19;;;;;;;6.57;4.13;;;;;;;3.19;96.87;99058.81;5064400;28;20021;-90
2021/10/28 01:55:48;;;;;;;7.93;4.32;;;;;;;3.11;97.43;99054.34;5063223;28;20132;-89
2021/10/28 01:58:22;;;;;;;9.82;4.57;;;;;;;3.13;97.07;99048.31;5062504;28;20324;-90
2021/10/28 02:00:50;;;;;;;7.97;4.40;;;;;;;3.03;97.32;99046.44;5063011;28;20049;-90
2021/10/28 02:03:20;;;;;;;8.48;4.57;;;;;;;3.08;97.51;99050.00;5065909;28;20048;-89
2021/10/28 02:05:51;;;;;;;9.43;4.63;;;;;;;3.14;97.05;99049.22;5060850;28;20024;-90
2021/10/28 02:08:19;;;;;;;10.10;4.60;;;;;;;3.04;96.70;99042.97;5065136;28;20335;-89
2021/10/28 02:10:48;;;;;;;12.43;4.80;;;;;;;2.94;96.53;99038.47;5059978;28;20028;-90
2021/10/28 02:13:20;;;;;;;9.73;4.50;;;;;;;2.90;96.87;99041.88;5060773;28;20037;-90
2021/10/28 02:15:49;;;;;;;8.48;4.68;;;;;;;2.79;97.58;99040.81;5044988;28;20108;-90
2021/10/28 02:18:17;;;;;;;8.63;4.28;;;;;;;2.87;98.23;99036.63;5057900;28;20028;-89
2021/10/28 02:20:46;;;;;;;12.18;5.20;;;;;;;2.98;98.01;99027.28;5051542;28;20025;-89
2021/10/28 02:23:17;;;;;;;7.90;4.55;;;;;;;2.93;97.28;99034.13;5053751;28;20044;-89
2021/10/28 02:25:44;;;;;;;10.32;5.05;;;;;;;2.70;97.20;99027.66;5050270;28;20025;-89
2021/10/28 02:28:13;;;;;;;10.50;4.68;;;;;;;2.70;97.17;99019.88;5052861;28;20098;-89
2021/10/28 02:30:39;;;;;;;8.43;4.63;;;;;;;2.61;97.33;99022.28;5031812;28;20323;-89
2021/10/28 02:33:07;;;;;;;8.13;4.28;;;;;;;2.72;98.03;99027.69;5053919;28;20029;-89
2021/10/28 02:35:40;;;;;;;9.65;4.78;;;;;;;2.78;97.41;99026.06;5053592;28;20193;-90
2021/10/28 02:38:07;;;;;;;8.15;4.25;;;;;;;2.74;97.43;99020.78;5062813;28;20024;-89
2021/10/28 02:40:33;;;;;;;8.15;4.60;;;;;;;2.71;97.86;99026.81;5056314;28;20064;-89
2021/10/28 02:43:01;;;;;;;10.65;4.43;;;;;;;2.60;97.72;99030.06;5036659;28;20029;-89
2021/10/28 02:45:29;;;;;;;7.53;4.50;;;;;;;2.63;97.41;99024.94;5027959;28;20076;-90
2021/10/28 02:47:54;;;;;;;10.65;4.90;;;;;;;2.63;97.79;99020.63;5055216;28;20045;-89
2021/10/28 02:50:21;;;;;;;8.77;4.82;;;;;;;2.59;98.21;99020.53;5037651;28;20028;-89
2021/10/28 02:52:47;;;;;;;9.40;4.70;;;;;;;2.57;97.97;99023.09;5050923;28;20028;-89
2021/10/28 02:55:12;;;;;;;7.55;4.22;;;;;;;2.71;97.70;99020.72;5042583;28;20225;-89
2021/10/28 02:57:42;;;;;;;13.68;5.07;;;;;;;2.68;96.89;99021.56;5042932;28;20028;-89
2021/10/28 03:00:10;;;;;;;6.47;4.03;;;;;;;2.73;96.83;99014.72;5042979;28;20079;-89
2021/10/28 03:02:35;;;;;;;8.38;4.93;;;;;;;2.57;96.33;99020.50;5050135;28;20027;-89
2021/10/28 03:05:01;;;;;;;7.00;4.30;;;;;;;2.62;96.90;99016.25;5047427;28;20049;-89
2021/10/28 03:07:26;;;;;;;10.80;4.68;;;;;;;2.53;96.84;99026.47;5052722;28;20023;-89
2021/10/28 03:09:52;;;;;;;8.57;4.47;;;;;;;2.59;97.25;99026.56;5047634;28;20081;-89
2021/10/28 03:12:17;;;;;;;11.10;4.28;;;;;;;2.64;97.77;99014.56;5050222;28;20319;-89
2021/10/28 03:14:50;;;;;;;7.10;4.22;;;;;;;2.70;97.57;99014.66;5062671;28;20055;-89
2021/10/28 03:27:51;;;;;;;9.20;4.65;;;;;;;2.82;97.49;99008.81;5063355;28;20029;-89
2021/10/28 03:30:17;;;;;;;8.27;4.05;;;;;;;2.76;96.67;99014.78;5052723;28;20029;-89
2021/10/28 03:32:43;;;;;;;7.80;4.63;;;;;;;2.74;96.74;99015.56;5059935;28;20020;-89
2021/10/28 03:35:11;;;;;;;8.30;4.70;;;;;;;2.69;97.35;99020.69;5052581;28;20025;-89
2021/10/28 03:37:44;;;;;;;6.88;3.95;;;;;;;2.64;97.43;99018.88;5057286;28;20304;-89
2021/10/28 03:40:51;;;;;;;10.68;4.57;;;;;;;2.57;97.56;99028.28;5048806;28;20021;-89
2021/10/28 04:29:06;;;;;;;16.48;4.88;;;;;;;2.49;97.78;99040.25;5055562;28;20212;-90
2021/10/28 04:31:36;;;;;;;15.38;4.40;;;;;;;2.37;98.17;99029.63;5038637;28;20148;-90
2021/10/28 04:34:12;;;;;;;8.77;4.50;;;;;;;2.36;98.10;99022.69;5049748;28;20076;-90
2021/10/28 04:36:39;;;;;;;8.10;4.47;;;;;;;2.36;97.76;99022.69;5057409;28;20096;-90
2021/10/28 04:39:09;;;;;;;12.50;4.32;;;;;;;2.34;97.22;99019.19;5054500;28;20012;-90
2021/10/28 04:41:38;;;;;;;9.68;4.63;;;;;;;2.22;96.82;99021.56;5054521;28;20021;-90
2021/10/28 04:44:10;;;;;;;6.57;4.28;;;;;;;2.09;96.78;99022.16;5057431;28;20017;-90
2021/10/28 04:46:37;;;;;;;9.40;4.77;;;;;;;2.16;97.05;99024.03;5050672;28;20116;-90
2021/10/28 04:49:04;;;;;;;10.25;3.97;;;;;;;2.18;97.12;99024.91;5059158;28;20267;-90
2021/10/28 04:51:31;;;;;;;14.38;4.93;;;;;;;2.24;97.50;99027.66;5055535;28;20047;-90
2021/10/28 04:53:58;;;;;;;14.05;4.38;;;;;;;2.14;96.91;99025.72;5053912;28;20056;-90
2021/10/28 04:56:25;;;;;;;8.30;4.72;;;;;;;2.14;96.68;99024.00;5046654;28;20044;-90
2021/10/28 04:58:55;;;;;;;7.53;4.22;;;;;;;2.02;96.80;99022.88;5034505;28;20024;-90
2021/10/28 05:01:23;;;;;;;8.65;4.22;;;;;;;2.00;97.31;99032.38;5044863;28;20033;-90
2021/10/28 05:03:50;;;;;;;7.28;4.30;;;;;;;2.01;97.68;99039.28;5050091;28;20228;-90
2021/10/28 05:06:15;;;;;;;10.32;4.85;;;;;;;1.84;97.95;99040.69;5037325;28;20323;-90
2021/10/28 05:08:42;;;;;;;12.07;4.22;;;;;;;1.97;98.59;99038.34;5052216;28;20064;-90
2021/10/28 05:11:08;;;;;;;13.20;5.82;;;;;;;1.89;98.38;99023.47;5050475;28;20025;-90
2021/10/28 05:13:34;;;;;;;10.13;5.75;;;;;;;1.90;98.67;99028.69;5023088;28;20029;-90
2021/10/28 05:16:05;;;;;;;13.63;6.47;;;;;;;2.12;98.45;99022.25;5052473;28;20100;-90
2021/10/28 05:18:39;;;;;;;17.58;7.43;;;;;;;2.11;98.47;99030.84;5038073;28;20040;-90
2021/10/28 05:21:06;;;;;;;23.40;8.82;;;;;;;2.20;98.53;99025.84;5034622;28;20120;-90
2021/10/28 05:23:33;;;;;;;28.00;12.90;;;;;;;2.41;98.41;99026.25;5038021;28;20037;-90
2021/10/28 05:25:59;;;;;;;19.73;9.77;;;;;;;2.60;98.32;99023.16;5029854;28;20137;-90
2021/10/28 05:28:26;;;;;;;12.95;7.13;;;;;;;2.70;98.36;99017.28;5061249;28;20029;-90
2021/10/28 05:30:52;;;;;;;13.23;7.70;;;;;;;2.88;98.05;99024.50;5017417;28;20048;-90
2021/10/28 05:33:18;;;;;;;15.57;6.80;;;;;;;3.02;97.50;99021.28;5056313;28;20327;-90
2021/10/28 05:35:44;;;;;;;11.90;6.00;;;;;;;3.05;97.68;99021.34;5041881;28;20062;-90
2021/10/28 05:38:09;;;;;;;12.90;5.75;;;;;;;2.93;97.13;99012.44;5049915;28;20017;-90
2021/10/28 05:40:35;;;;;;;8.65;5.03;;;;;;;3.09;97.30;99014.44;5050977;28;20083;-90
2021/10/28 05:43:01;;;;;;;12.68;5.97;;;;;;;3.14;96.68;99018.88;5054283;28;20036;-90
2021/10/28 05:45:30;;;;;;;16.75;6.95;;;;;;;3.03;96.78;99010.03;5046530;28;20020;-90
2021/10/28 05:47:57;;;;;;;13.60;7.22;;;;;;;3.10;96.96;99014.47;5065685;28;20087;-90
2021/10/28 05:50:25;;;;;;;12.45;7.50;;;;;;;3.17;96.60;99023.25;5036929;28;20044;-90
2021/10/28 05:52:56;;;;;;;17.38;7.10;;;;;;;3.14;96.57;99023.19;5038445;28;20034;-89
2021/10/28 05:55:24;;;;;;;11.93;6.13;;;;;;;3.27;96.96;99015.63;5060896;28;20052;-89
2021/10/28 05:57:56;;;;;;;13.82;6.55;;;;;;;3.19;96.87;99018.94;5049034;28;20321;-90
2021/10/28 06:00:38;;;;;;;15.07;8.48;;;;;;;3.34;96.56;99022.66;5054973;28;20096;-91
2021/10/28 06:03:04;;;;;;;11.52;6.97;;;;;;;3.43;96.99;99017.59;5058154;28;20074;-90
2021/10/28 06:05:29;;;;;;;23.02;6.82;;;;;;;3.28;96.57;99022.56;5042935;28;20029;-90
2021/10/28 06:07:55;;;;;;;22.17;8.25;;;;;;;3.32;97.31;99019.16;5048943;28;20047;-90
2021/10/28 06:10:20;;;;;;;17.42;7.75;;;;;;;3.38;97.50;99011.44;5046146;28;20108;-90
2021/10/28 06:12:52;;;;;;;17.10;8.80;;;;;;;3.48;97.26;99015.91;5057971;28;20081;-90
2021/10/28 06:15:20;;;;;;;;;;;;;;;3.56;97.63;99013.44;5054434;28;20013;-90
2021/10/28 06:17:50;;;;;;;17.50;7.85;;;;;;;3.62;97.18;99006.59;5047974;28;19975;-90
2021/10/28 06:20:19;;;;;;;17.25;8.65;;;;;;;3.66;97.72;99005.78;5052922;28;20036;-90
2021/10/28 06:22:50;;;;;;;24.33;9.68;;;;;;;3.74;98.05;99009.34;5047023;28;20037;-90
2021/10/28 06:25:18;;;;;;;18.77;7.95;;;;;;;3.70;97.98;99007.56;5056902;28;20021;-90
2021/10/28 06:27:46;;;;;;;23.60;9.40;;;;;;;3.62;97.88;99003.13;5045956;28;20075;-90
2021/10/28 06:30:12;;;;;;;31.45;9.50;;;;;;;3.60;98.15;98995.28;5054546;28;20013;-90
2021/10/28 06:32:52;;;;;;;31.05;9.95;;;;;;;3.55;98.98;98999.53;5051090;28;20384;-90
2021/10/28 06:35:18;;;;;;;27.30;10.10;;;;;;;3.54;99.69;99000.41;5054122;28;20025;-90
2021/10/28 06:37:48;;;;;;;22.08;9.15;;;;;;;3.73;99.33;98991.09;5032644;28;20025;-89
2021/10/28 06:40:16;;;;;;;26.45;8.73;;;;;;;3.83;100.00;98993.84;5038014;28;20052;-89
2021/10/28 06:42:42;;;;;;;30.85;9.30;;;;;;;3.84;99.44;98995.63;5062463;28;20327;-88
2021/10/28 06:45:08;;;;;;;27.02;10.00;;;;;;;3.79;100.00;99001.59;5051951;28;20025;-88
2021/10/28 06:47:34;;;;;;;44.47;10.15;;;;;;;3.80;100.00;99006.81;5055813;28;20013;-89
2021/10/28 06:50:06;;;;;;;21.75;9.32;;;;;;;4.03;100.00;99007.13;5061743;28;20215;-88
2021/10/28 06:52:53;;;;;;;37.20;9.27;;;;;;;4.04;99.88;99008.88;5051820;28;20021;-88
2021/10/28 06:55:36;;;;;;;21.85;8.18;;;;;;;4.10;100.00;99015.03;5054541;28;20220;-89
2021/10/28 07:03:32;;;;;;;23.88;8.68;;;;;;;4.55;99.99;99009.44;5054457;28;20035;-88
2021/10/28 07:06:22;;;;;;;24.80;9.32;;;;;;;4.72;99.71;99013.13;5048460;28;20053;-89
2021/10/28 07:08:47;;;;;;;40.75;9.32;;;;;;;4.76;99.67;99017.50;5063906;28;20025;-88
2021/10/28 07:11:18;;;;;;;43.13;8.85;;;;;;;4.89;99.60;99018.47;5059202;28;20173;-88
2021/10/28 07:13:47;;;;;;;42.95;8.68;;;;;;;4.85;99.06;99019.31;5059146;28;20021;-91
2021/10/28 07:16:22;;;;;;;32.75;8.00;;;;;;;4.96;99.63;99017.66;5046729;28;20045;-88
2021/10/28 07:18:53;;;;;;;20.83;8.82;;;;;;;5.02;99.39;99022.94;5060726;28;20013;-88
2021/10/28 08:15:15;;;;;;;34.83;14.43;;;;;;;8.26;97.10;98997.53;5050559;28;20024;-89
2021/10/28 08:23:26;;;;;;;41.42;13.70;;;;;;;8.58;97.45;98985.13;5058608;28;20227;-89
2021/10/28 08:31:30;;;;;;;34.03;13.32;;;;;;;9.15;96.92;98972.47;5058774;28;20017;-91
2021/10/28 08:34:11;;;;;;;33.13;13.57;;;;;;;9.26;96.37;98963.59;5059096;28;20030;-91
2021/10/28 08:36:49;;;;;;;26.98;12.50;;;;;;;9.27;95.84;98961.88;5047105;28;20032;-91
2021/10/28 08:39:23;;;;;;;29.90;13.27;;;;;;;9.33;95.93;98961.81;5062053;28;20031;-91
2021/10/28 08:41:57;;;;;;;28.38;12.50;;;;;;;9.45;95.83;98969.56;5056810;28;20029;-91
2021/10/28 08:44:30;;;;;;;27.45;12.88;;;;;;;9.42;95.08;98962.59;5064874;28;20027;-91
2021/10/28 08:47:10;;;;;;;30.27;13.60;;;;;;;9.52;95.63;98963.38;5049532;28;20045;-91
2021/10/28 08:55:18;;;;;;;28.70;13.57;;;;;;;9.41;96.95;98965.22;5051657;28;20021;-84
2021/10/28 09:27:14;;;;;;;18.63;9.13;;;;;;;10.57;91.99;98967.38;5059453;28;20254;-90
2021/10/28 09:29:56;;;;;;;18.75;9.27;;;;;;;10.35;93.85;98958.03;5062472;28;20193;-91
2021/10/28 09:32:41;;;;;;;;;;;;;;;10.39;92.42;98950.09;5047256;28;20029;-89
2021/10/28 09:35:30;;;;;;;15.82;9.00;;;;;;;10.46;92.28;98945.59;5061131;28;19904;-90
2021/10/28 09:44:11;;;;;;;17.25;9.43;;;;;;;10.29;93.68;98944.97;5056353;28;20032;-89
2021/10/28 09:46:50;;;;;;;17.00;8.82;;;;;;;10.36;93.58;98946.63;5063378;28;20320;-89
2021/10/28 09:57:50;;;;;;;22.23;11.00;;;;;;;10.65;92.27;98955.84;5046458;28;20022;-89
2021/10/28 09:57:56;;;;;;;21.17;11.15;;;;;;;10.91;92.97;98963.34;5054166;28;20328;-91
2021/10/28 10:00:33;;;;;;;16.95;9.57;;;;;;;11.14;90.66;98955.09;5044299;28;20030;-89
2021/10/28 10:03:08;;;;;;;18.65;9.05;;;;;;;11.34;90.35;98953.84;5051937;28;20021;-90
2021/10/28 10:05:34;;;;;;;17.33;9.68;;;;;;;11.13;89.63;98948.94;5043822;28;20051;-90
2021/10/28 10:08:00;;;;;;;18.40;10.13;;;;;;;12.08;88.49;98955.97;5055821;28;20110;-90
2021/10/28 10:10:28;;;;;;;16.25;9.30;;;;;;;12.20;86.86;98950.47;5061266;28;20037;-89
2021/10/28 10:12:59;;;;;;;16.05;8.52;;;;;;;11.93;88.68;98952.78;5056151;28;20308;-89
2021/10/28 10:15:25;;;;;;;17.55;9.18;;;;;;;11.84;86.42;98951.22;5044870;28;20017;-88
2021/10/28 10:17:54;;;;;;;18.00;8.65;;;;;;;11.60;88.40;98951.63;5044855;28;20024;-88
2021/10/28 10:20:28;;;;;;;17.08;8.70;;;;;;;11.51;87.92;98951.78;5053031;28;20024;-89
2021/10/28 10:23:16;;;;;;;16.92;9.35;;;;;;;12.11;86.82;98950.63;5050496;28;20030;-90
2021/10/28 10:25:54;;;;;;;16.08;9.23;;;;;;;12.17;85.00;98947.88;5054239;28;20013;-89
2021/10/28 10:29:01;;;;;;;17.27;9.50;;;;;;;12.30;86.20;98941.44;5055448;28;20373;-90
2021/10/28 12:25:42;;;;;;;19.23;10.38;;;;;;;13.45;83.18;98780.94;5053427;28;20092;-87
2021/10/28 12:45:35;;;;;;;15.60;9.98;;;;;;;13.43;83.05;98744.88;5059098;28;20028;-88
2021/10/28 12:48:53;;;;;;;15.23;8.80;;;;;;;13.55;82.64;98739.25;5057647;28;20024;-87
2021/10/28 12:51:19;;;;;;;17.52;9.23;;;;;;;13.53;83.10;98746.34;5056391;28;20268;-88
2021/10/28 12:56:44;;;;;;;15.35;8.48;;;;;;;13.57;83.06;98742.72;5053503;28;20029;-88
2021/10/28 13:27:53;;;;;;;14.93;8.43;;;;;;;13.61;82.91;98737.28;5058973;28;20020;-88
2021/10/28 13:48:53;;;;;;;24.13;7.95;;;;;;;13.81;84.11;98710.22;5056766;28;20403;-88
2021/10/28 13:51:36;;;;;;;19.50;7.55;;;;;;;13.82;83.72;98718.09;5057100;28;20269;-87
2021/10/28 14:14:55;;;;;;;14.00;7.50;;;;;;;13.91;82.76;98716.94;5049150;28;20441;-88
2021/10/28 15:34:24;;;;;;;25.90;12.90;;;;;;;11.89;88.88;98664.47;5067754;28;20051;-87
2021/10/28 15:39:43;;;;;;;20.15;12.32;;;;;;;11.65;89.92;98651.88;5067024;28;20066;-87
2021/10/28 15:42:34;;;;;;;19.55;11.32;;;;;;;11.59;90.21;98646.72;5067607;28;20328;-87
2021/10/28 15:55:46;;;;;;;21.23;12.77;;;;;;;11.29;90.97;98731.72;5065074;28;20241;-87
2021/10/28 16:22:28;;;;;;;24.75;15.20;;;;;;;9.94;94.02;98694.72;5052865;28;20071;-86
2021/10/28 16:24:54;;;;;;;24.48;15.30;;;;;;;9.82;94.12;98697.53;5047648;28;20097;-85
2021/10/28 16:27:19;;;;;;;36.78;16.63;;;;;;;9.77;93.71;98696.72;5055739;28;20025;-85
2021/10/28 16:29:45;;;;;;;28.58;16.38;;;;;;;9.41;93.13;98692.00;5048912;28;20084;-85
2021/10/28 16:32:13;;;;;;;27.35;15.27;;;;;;;9.30;93.60;98699.19;5056093;28;20026;-85
2021/10/28 16:34:39;;;;;;;28.80;16.55;;;;;;;9.25;94.17;98695.75;5047977;28;20017;-85
2021/10/28 16:37:05;;;;;;;27.75;14.52;;;;;;;9.14;94.23;98702.91;5054002;28;20021;-86
2021/10/28 16:39:30;;;;;;;29.50;15.90;;;;;;;9.11;94.96;98702.94;5056751;28;20344;-89
2021/10/28 16:41:56;;;;;;;24.27;14.00;;;;;;;8.94;94.73;98700.50;5056474;28;20132;-89
2021/10/28 16:44:22;;;;;;;30.20;16.88;;;;;;;8.85;94.74;98694.50;5059990;28;20021;-89
2021/10/28 16:46:48;;;;;;;31.13;18.98;;;;;;;8.74;95.17;98699.88;5055875;28;20223;-89
2021/10/28 16:49:15;;;;;;;40.75;23.63;;;;;;;8.65;95.76;98700.84;5058958;28;20225;-89
2021/10/28 16:51:41;;;;;;;50.53;30.80;;;;;;;8.57;95.59;98705.28;5056320;28;20025;-89
2021/10/28 16:54:07;;;;;;;56.08;32.65;;;;;;;8.48;96.14;98700.13;5058277;28;20100;-89
2021/10/28 16:56:33;;;;;;;61.65;34.88;;;;;;;8.38;95.89;98705.47;5053000;28;20036;-90
2021/10/28 16:58:59;;;;;;;57.20;33.60;;;;;;;8.30;96.56;98702.97;5054454;28;20024;-89
2021/10/28 17:01:27;;;;;;;45.70;29.50;;;;;;;8.26;96.36;98709.09;5050540;28;20028;-89
2021/10/28 17:03:53;;;;;;;44.42;29.02;;;;;;;8.18;96.47;98704.78;5054260;28;20033;-90
2021/10/28 17:06:20;;;;;;;53.35;32.00;;;;;;;8.09;96.47;98703.09;5056242;28;20045;-89
2021/10/28 17:08:47;;;;;;;52.45;35.55;;;;;;;8.02;96.42;98706.66;5055251;28;20021;-89
2021/10/28 17:11:21;;;;;;;53.25;31.15;;;;;;;7.98;97.18;98702.31;5049651;28;20020;-90
2021/10/28 17:13:47;;;;;;;51.05;33.30;;;;;;;7.91;97.07;98729.44;5053003;28;20036;-90
2021/10/28 17:16:12;;;;;;;43.15;29.60;;;;;;;7.79;96.25;98732.16;5053952;28;20308;-90
2021/10/28 17:18:38;;;;;;;40.95;26.55;;;;;;;7.77;96.33;98712.97;5053278;28;20075;-87
2021/10/28 17:21:06;;;;;;;36.15;23.73;;;;;;;7.71;96.23;98718.25;5051026;28;20021;-87
2021/10/28 17:23:42;;;;;;;40.92;24.15;;;;;;;7.62;96.85;98712.19;5052612;28;20096;-87
2021/10/28 17:26:10;;;;;;;37.72;22.75;;;;;;;7.59;96.89;98710.47;5054548;28;20020;-87
2021/10/28 17:28:36;;;;;;;37.17;22.77;;;;;;;7.54;96.68;98701.78;5051064;28;20066;-87
2021/10/28 17:31:04;;;;;;;36.75;21.50;;;;;;;7.52;97.14;98705.25;5049542;28;20049;-87
2021/10/28 17:33:29;;;;;;;35.90;21.58;;;;;;;7.47;96.96;98702.66;5050716;28;20033;-87
2021/10/28 17:35:55;;;;;;;37.45;22.77;;;;;;;7.38;97.34;98702.75;5063304;28;20021;-87
2021/10/28 17:38:22;;;;;;;35.22;22.17;;;;;;;7.43;97.49;98700.97;5055417;28;20013;-87
2021/10/28 17:40:48;;;;;;;38.28;23.10;;;;;;;7.32;97.56;98694.94;5051334;28;20049;-86
2021/10/28 17:43:15;;;;;;;39.50;24.90;;;;;;;7.27;97.94;98696.69;5056303;28;20035;-86
2021/10/28 17:45:41;;;;;;;41.42;24.75;;;;;;;7.08;97.70;98697.66;5049426;28;20058;-87
2021/10/28 17:48:08;;;;;;;41.50;24.60;;;;;;;7.05;97.97;98694.22;5044131;28;20075;-87
2021/10/28 17:50:34;;;;;;;39.35;24.40;;;;;;;6.98;97.90;98685.50;5051444;28;20016;-87
2021/10/28 17:53:00;;;;;;;34.17;21.80;;;;;;;7.00;98.30;98689.00;5057958;28;20021;-87
2021/10/28 17:55:26;;;;;;;48.33;22.80;;;;;;;6.98;98.45;98690.72;5057890;28;20068;-87
2021/10/28 17:57:51;;;;;;;37.75;22.02;;;;;;;6.96;98.38;98687.25;5045515;28;20328;-87
2021/10/28 18:00:19;;;;;;;36.88;21.90;;;;;;;6.92;98.12;98679.41;5051419;28;20030;-86
2021/10/28 18:02:45;;;;;;;42.88;23.70;;;;;;;6.94;98.50;98689.00;5064885;28;20012;-87
2021/10/28 18:05:11;;;;;;;33.30;19.17;;;;;;;6.83;98.35;98685.56;5058866;28;20553;-87
2021/10/28 18:07:37;;;;;;;38.80;21.63;;;;;;;6.65;97.26;98685.63;5069739;28;20023;-87
2021/10/28 18:10:05;;;;;;;36.35;19.98;;;;;;;6.68;97.32;98684.75;5086110;28;20021;-87
2021/10/28 18:12:31;;;;;;;38.70;20.80;;;;;;;6.68;98.18;98680.41;5086600;28;20012;-87
2021/10/28 18:14:57;;;;;;;37.80;22.70;;;;;;;6.60;98.64;98671.69;5069893;28;20008;-87
2021/10/28 18:17:22;;;;;;;43.65;21.27;;;;;;;6.57;98.45;98679.53;5089330;28;20012;-87
2021/10/28 18:19:48;;;;;;;35.90;20.38;;;;;;;6.59;98.60;98678.66;5071896;28;20012;-87
2021/10/28 18:22:16;;;;;;;38.08;21.83;;;;;;;6.49;98.38;98668.25;5069811;28;20020;-87
2021/10/28 18:24:42;;;;;;;39.78;21.73;;;;;;;6.41;98.33;98681.34;5071819;28;20081;-87
2021/10/28 18:27:08;;;;;;;41.83;23.73;;;;;;;6.48;98.52;98666.50;5074842;28;20057;-87
2021/10/28 18:29:35;;;;;;;41.40;23.25;;;;;;;6.42;98.55;98666.50;5069353;28;20012;-87
2021/10/28 18:32:00;;;;;;;46.00;23.65;;;;;;;6.44;98.66;98659.53;5073517;28;20200;-87
2021/10/28 18:34:26;;;;;;;46.35;22.80;;;;;;;6.28;98.25;98660.44;5074383;28;20013;-87
2021/10/28 18:36:52;;;;;;;47.30;26.25;;;;;;;6.23;99.35;98657.84;5071109;28;20027;-87
2021/10/28 18:39:19;;;;;;;47.33;25.98;;;;;;;6.23;100.00;98650.00;5065567;28;20016;-86
2021/10/28 18:41:47;;;;;;;36.53;21.92;;;;;;;6.12;98.89;98646.56;5070551;28;20091;-86
2021/10/28 18:44:13;;;;;;;47.05;24.98;;;;;;;6.14;99.04;98651.78;5074927;28;20023;-86
2021/10/28 18:46:39;;;;;;;48.90;25.83;;;;;;;6.05;98.77;98647.41;5069805;28;20020;-87
2021/10/28 18:49:07;;;;;;;45.78;25.75;;;;;;;6.08;99.29;98649.19;5061131;28;20052;-87
2021/10/28 18:51:34;;;;;;;47.17;25.27;;;;;;;6.06;99.41;98635.22;5063592;28;20318;-87
2021/10/28 18:54:01;;;;;;;41.45;23.77;;;;;;;6.15;99.75;98640.44;5067070;28;20032;-87
2021/10/28 18:56:27;;;;;;;40.50;23.80;;;;;;;5.96;99.01;98631.78;5064717;28;20034;-86
2021/10/28 18:58:53;;;;;;;46.75;24.85;;;;;;;6.00;99.31;98630.00;5073220;28;20066;-86
2021/10/28 19:01:19;;;;;;;44.40;24.25;;;;;;;5.99;99.53;98623.06;5075664;28;20020;-87
2021/10/28 19:03:45;;;;;;;40.45;24.48;;;;;;;5.99;99.41;98612.59;5071013;28;20028;-87
2021/10/28 19:06:12;;;;;;;48.03;23.75;;;;;;;6.00;99.45;98620.44;5070235;28;20047;-87
2021/10/28 19:08:40;;;;;;;39.97;22.20;;;;;;;5.99;98.88;98618.72;5089355;28;20268;-87
2021/10/28 19:11:07;;;;;;;36.58;20.10;;;;;;;5.94;98.92;98624.78;5086317;28;20024;-87
2021/10/28 19:13:34;;;;;;;40.88;22.30;;;;;;;5.74;99.53;98621.31;5067106;28;20012;-87
2021/10/28 19:16:00;;;;;;;44.42;25.15;;;;;;;5.74;100.00;98621.31;5085500;28;20074;-87
2021/10/28 19:18:26;;;;;;;41.45;21.20;;;;;;;5.76;100.00;98614.34;5083804;28;20017;-87
2021/10/28 19:20:51;;;;;;;41.65;22.20;;;;;;;5.72;100.00;98608.25;5088283;28;20307;-87
2021/10/28 19:23:17;;;;;;;48.80;25.95;;;;;;;5.84;100.00;98612.63;5066548;28;20024;-87
2021/10/28 19:25:42;;;;;;;44.85;22.33;;;;;;;5.91;100.00;98614.34;5082724;28;20016;-88
2021/10/28 19:28:08;;;;;;;37.85;21.55;;;;;;;5.75;100.00;98612.59;5065500;28;20242;-89
2021/10/28 19:30:39;;;;;;;41.65;22.25;;;;;;;5.74;100.00;98605.63;5069909;28;20031;-90
2021/10/28 19:33:12;;;;;;;30.70;18.63;;;;;;;5.66;99.52;98599.56;5059847;28;20087;-89
2021/10/28 19:35:40;;;;;;;38.63;20.77;;;;;;;5.61;99.64;98593.47;5061182;28;20092;-90
2021/10/28 19:40:53;;;;;;;37.08;20.02;;;;;;;5.44;99.48;98590.00;5082832;28;20047;-89
2021/10/28 19:48:28;;;;;;;33.88;20.48;;;;;;;5.43;98.41;98604.78;5081864;28;20021;-89
2021/10/28 19:50:54;;;;;;;36.30;20.70;;;;;;;5.15;97.83;98605.63;5063131;28;20257;-89
2021/10/28 19:53:19;;;;;;;41.75;21.15;;;;;;;5.05;98.49;98598.66;5065615;28;20039;-89
2021/10/28 19:55:45;;;;;;;38.80;21.95;;;;;;;5.09;98.94;98612.59;5065863;28;20012;-88
2021/10/28 19:58:16;;;;;;;35.05;21.00;;;;;;;5.21;99.06;98620.41;5065497;28;20027;-87
2021/10/28 20:00:49;;;;;;;35.30;19.45;;;;;;;5.24;99.97;98612.59;5045009;28;20087;-88
2021/10/28 20:06:27;;;;;;;63.00;28.58;;;;;;;5.25;100.00;98604.75;5083324;28;20040;-88
2021/10/28 20:14:22;;;;;;;43.40;25.40;;;;;;;5.30;100.00;98615.19;4994862;28;20038;-88
2021/10/28 20:22:15;;;;;;;39.13;21.38;;;;;;;5.26;100.00;98611.75;5092140;28;20035;-88
2021/10/28 20:24:41;;;;;;;42.95;23.02;;;;;;;5.13;99.73;98619.53;5072055;28;20323;-88
2021/10/28 20:27:06;;;;;;;48.53;25.48;;;;;;;5.18;99.94;98617.78;5068708;28;20016;-87